sensor_id;sensor_type;location;lat;lon;timestamp;pressure;altitude;pressure_sealevel;temperature;humidity
4326;BME280;58429;49.826;10.880;2023-04-24T00:00:20;97595;;;12.46;77.66
4326;BME280;58429;49.826;10.880;2023-04-24T00:01:20;97599;;;12.45;77.61
4326;BME280;58429;49.826;10.880;2023-04-24T00:02:20;97597;;;12.41;77.62
4326;BME280;58429;49.826;10.880;2023-04-24T00:03:20;97605;;;12.43;77.63
4326;BME280;58429;49.826;10.880;2023-04-24T00:04:20;97605;;;12.47;77.71
4326;BME280;58429;49.826;10.880;2023-04-24T00:05:20;97601;;;12.4;77.79
4326;BME280;58429;49.826;10.880;2023-04-24T00:06:21;97602;;;12.41;77.63
4326;BME280;58429;49.826;10.880;2023-04-24T00:07:20;97600;;;12.41;77.57
4326;BME280;58429;49.826;10.880;2023-04-24T00:08:20;97599;;;12.44;77.62
4326;BME280;58429;49.826;10.880;2023-04-24T00:09:21;97593;;;12.43;77.68
4326;BME280;58429;49.826;10.880;2023-04-24T00:10:21;97599;;;12.4;77.56
4326;BME280;58429;49.826;10.880;2023-04-24T00:11:21;97593;;;12.41;77.56
4326;BME280;58429;49.826;10.880;2023-04-24T00:12:21;97595;;;12.43;77.47
4326;BME280;58429;49.826;10.880;2023-04-24T00:13:20;97588;;;12.4;77.39
4326;BME280;58429;49.826;10.880;2023-04-24T00:14:21;97593;;;12.43;77.54
4326;BME280;58429;49.826;10.880;2023-04-24T00:15:20;97591;;;12.4;77.54
4326;BME280;58429;49.826;10.880;2023-04-24T00:16:20;97587;;;12.37;77.54
4326;BME280;58429;49.826;10.880;2023-04-24T00:17:21;97592;;;12.4;77.57
4326;BME280;58429;49.826;10.880;2023-04-24T00:18:21;97583;;;12.4;77.62
4326;BME280;58429;49.826;10.880;2023-04-24T00:19:20;97580;;;12.38;77.33
4326;BME280;58429;49.826;10.880;2023-04-24T00:20:20;97588;;;12.38;77.34
4326;BME280;58429;49.826;10.880;2023-04-24T00:21:20;97578;;;12.35;77.27
4326;BME280;58429;49.826;10.880;2023-04-24T00:22:21;97579;;;12.35;77.22
4326;BME280;58429;49.826;10.880;2023-04-24T00:23:20;97576;;;12.34;77.41
4326;BME280;58429;49.826;10.880;2023-04-24T00:24:20;97578;;;12.34;77.38
4326;BME280;58429;49.826;10.880;2023-04-24T00:25:20;97577;;;12.33;77.32
4326;BME280;58429;49.826;10.880;2023-04-24T00:26:20;97581;;;12.31;77.45
4326;BME280;58429;49.826;10.880;2023-04-24T00:27:20;97578;;;12.3;77.67
4326;BME280;58429;49.826;10.880;2023-04-24T00:28:21;97588;;;12.31;77.54
4326;BME280;58429;49.826;10.880;2023-04-24T00:29:20;97582;;;12.28;77.47
4326;BME280;58429;49.826;10.880;2023-04-24T00:30:21;97578;;;12.26;77.59
4326;BME280;58429;49.826;10.880;2023-04-24T00:31:20;97577;;;12.26;77.35
4326;BME280;58429;49.826;10.880;2023-04-24T00:32:20;97575;;;12.28;77.44
4326;BME280;58429;49.826;10.880;2023-04-24T00:33:21;97576;;;12.28;77.53
4326;BME280;58429;49.826;10.880;2023-04-24T00:34:20;97585;;;12.23;77.37
4326;BME280;58429;49.826;10.880;2023-04-24T00:35:21;97582;;;12.3;77.35
4326;BME280;58429;49.826;10.880;2023-04-24T00:36:20;97579;;;12.25;77.31
4326;BME280;58429;49.826;10.880;2023-04-24T00:37:20;97587;;;12.26;77.45
4326;BME280;58429;49.826;10.880;2023-04-24T00:38:20;97584;;;12.22;77.54
4326;BME280;58429;49.826;10.880;2023-04-24T00:39:21;97590;;;12.23;77.67
4326;BME280;58429;49.826;10.880;2023-04-24T00:40:20;97586;;;12.19;77.67
4326;BME280;58429;49.826;10.880;2023-04-24T00:41:21;97590;;;12.2;77.87
4326;BME280;58429;49.826;10.880;2023-04-24T00:42:20;97590;;;12.17;77.54
4326;BME280;58429;49.826;10.880;2023-04-24T00:43:21;97595;;;12.14;77.61
4326;BME280;58429;49.826;10.880;2023-04-24T00:44:20;97589;;;12.14;77.59
4326;BME280;58429;49.826;10.880;2023-04-24T00:45:20;97596;;;12.14;77.65
4326;BME280;58429;49.826;10.880;2023-04-24T00:46:21;97591;;;12.09;77.71
4326;BME280;58429;49.826;10.880;2023-04-24T00:47:20;97592;;;12.06;77.63
4326;BME280;58429;49.826;10.880;2023-04-24T00:48:21;97584;;;12.06;77.51
4326;BME280;58429;49.826;10.880;2023-04-24T00:49:21;97588;;;12.06;77.42
4326;BME280;58429;49.826;10.880;2023-04-24T00:50:21;97591;;;12.05;77.54
4326;BME280;58429;49.826;10.880;2023-04-24T00:51:20;97590;;;12.02;77.4
4326;BME280;58429;49.826;10.880;2023-04-24T00:52:20;97582;;;12.05;77.43
4326;BME280;58429;49.826;10.880;2023-04-24T00:53:20;97580;;;12.04;77.27
4326;BME280;58429;49.826;10.880;2023-04-24T00:54:21;97582;;;12.03;77.4
4326;BME280;58429;49.826;10.880;2023-04-24T00:55:21;97580;;;12.02;77.07
4326;BME280;58429;49.826;10.880;2023-04-24T00:56:20;97583;;;12.04;76.97
4326;BME280;58429;49.826;10.880;2023-04-24T00:57:21;97585;;;12.06;76.98
4326;BME280;58429;49.826;10.880;2023-04-24T00:58:20;97587;;;12.08;77.02
4326;BME280;58429;49.826;10.880;2023-04-24T00:59:20;97591;;;12.04;77.26
4326;BME280;58429;49.826;10.880;2023-04-24T01:00:20;97580;;;12.02;77.38
4326;BME280;58429;49.826;10.880;2023-04-24T01:01:21;97587;;;12.04;77.28
4326;BME280;58429;49.826;10.880;2023-04-24T01:02:21;97581;;;12.06;77.32
4326;BME280;58429;49.826;10.880;2023-04-24T01:03:21;97588;;;12.01;77.27
4326;BME280;58429;49.826;10.880;2023-04-24T01:04:20;97583;;;12.06;77.24
4326;BME280;58429;49.826;10.880;2023-04-24T01:05:21;97587;;;12.05;77.28
4326;BME280;58429;49.826;10.880;2023-04-24T01:06:20;97582;;;12.03;77.38
4326;BME280;58429;49.826;10.880;2023-04-24T01:07:21;97584;;;12.03;77.35
4326;BME280;58429;49.826;10.880;2023-04-24T01:08:21;97580;;;12.01;77.44
4326;BME280;58429;49.826;10.880;2023-04-24T01:09:21;97583;;;12;77.47
4326;BME280;58429;49.826;10.880;2023-04-24T01:10:20;97581;;;11.98;77.47
4326;BME280;58429;49.826;10.880;2023-04-24T01:11:21;97577;;;12;77.52
4326;BME280;58429;49.826;10.880;2023-04-24T01:12:20;97587;;;11.97;77.62
4326;BME280;58429;49.826;10.880;2023-04-24T01:13:20;97587;;;11.97;77.65
4326;BME280;58429;49.826;10.880;2023-04-24T01:14:21;97587;;;11.94;77.69
4326;BME280;58429;49.826;10.880;2023-04-24T01:15:20;97582;;;11.93;77.78
4326;BME280;58429;49.826;10.880;2023-04-24T01:16:21;97575;;;11.9;77.78
4326;BME280;58429;49.826;10.880;2023-04-24T01:17:20;97583;;;11.89;77.86
4326;BME280;58429;49.826;10.880;2023-04-24T01:18:21;97587;;;11.9;77.92
4326;BME280;58429;49.826;10.880;2023-04-24T01:19:21;97590;;;11.89;78.06
4326;BME280;58429;49.826;10.880;2023-04-24T01:20:21;97582;;;11.9;78.12
4326;BME280;58429;49.826;10.880;2023-04-24T01:21:21;97589;;;11.86;78.16
4326;BME280;58429;49.826;10.880;2023-04-24T01:22:20;97578;;;11.88;78.18
4326;BME280;58429;49.826;10.880;2023-04-24T01:23:21;97587;;;11.86;78.24
4326;BME280;58429;49.826;10.880;2023-04-24T01:24:20;97594;;;11.86;78.26
4326;BME280;58429;49.826;10.880;2023-04-24T01:25:20;97587;;;11.86;78.31
4326;BME280;58429;49.826;10.880;2023-04-24T01:26:21;97596;;;11.85;78.37
4326;BME280;58429;49.826;10.880;2023-04-24T01:27:21;97589;;;11.84;78.4
4326;BME280;58429;49.826;10.880;2023-04-24T01:28:20;97595;;;11.84;78.41
4326;BME280;58429;49.826;10.880;2023-04-24T01:29:20;97583;;;11.87;78.47
4326;BME280;58429;49.826;10.880;2023-04-24T01:30:20;97584;;;11.84;78.46
4326;BME280;58429;49.826;10.880;2023-04-24T01:31:20;97581;;;11.86;78.4
4326;BME280;58429;49.826;10.880;2023-04-24T01:32:20;97581;;;11.85;78.46
4326;BME280;58429;49.826;10.880;2023-04-24T01:33:21;97577;;;11.83;78.54
4326;BME280;58429;49.826;10.880;2023-04-24T01:34:20;97579;;;11.85;78.58
4326;BME280;58429;49.826;10.880;2023-04-24T01:35:20;97580;;;11.82;78.61
4326;BME280;58429;49.826;10.880;2023-04-24T01:36:20;97573;;;11.79;78.68
4326;BME280;58429;49.826;10.880;2023-04-24T01:37:20;97576;;;11.83;78.65
4326;BME280;58429;49.826;10.880;2023-04-24T01:38:20;97577;;;11.81;78.73
4326;BME280;58429;49.826;10.880;2023-04-24T01:39:21;97586;;;11.82;78.72
4326;BME280;58429;49.826;10.880;2023-04-24T01:40:21;97581;;;11.78;78.65
4326;BME280;58429;49.826;10.880;2023-04-24T01:41:21;97584;;;11.8;78.66
4326;BME280;58429;49.826;10.880;2023-04-24T01:42:21;97577;;;11.83;78.68
4326;BME280;58429;49.826;10.880;2023-04-24T01:43:21;97577;;;11.79;78.68
4326;BME280;58429;49.826;10.880;2023-04-24T01:44:21;97568;;;11.8;78.68
4326;BME280;58429;49.826;10.880;2023-04-24T01:45:21;97567;;;11.82;78.73
4326;BME280;58429;49.826;10.880;2023-04-24T01:46:20;97564;;;11.82;78.75
4326;BME280;58429;49.826;10.880;2023-04-24T01:47:21;97569;;;11.82;78.75
4326;BME280;58429;49.826;10.880;2023-04-24T01:48:21;97570;;;11.83;78.83
4326;BME280;58429;49.826;10.880;2023-04-24T01:49:21;97572;;;11.82;78.86
4326;BME280;58429;49.826;10.880;2023-04-24T01:50:20;97570;;;11.84;78.83
4326;BME280;58429;49.826;10.880;2023-04-24T01:51:21;97569;;;11.84;78.92
4326;BME280;58429;49.826;10.880;2023-04-24T01:52:21;97573;;;11.85;78.92
4326;BME280;58429;49.826;10.880;2023-04-24T01:53:21;97567;;;11.81;78.95
4326;BME280;58429;49.826;10.880;2023-04-24T01:54:21;97566;;;11.81;79.08
4326;BME280;58429;49.826;10.880;2023-04-24T01:55:21;97568;;;11.83;79.12
4326;BME280;58429;49.826;10.880;2023-04-24T01:56:21;97566;;;11.82;79.12
4326;BME280;58429;49.826;10.880;2023-04-24T01:57:20;97566;;;11.82;79.2
4326;BME280;58429;49.826;10.880;2023-04-24T01:58:21;97566;;;11.81;79.19
4326;BME280;58429;49.826;10.880;2023-04-24T01:59:20;97563;;;11.81;79.16
4326;BME280;58429;49.826;10.880;2023-04-24T02:00:21;97564;;;11.8;79.24
4326;BME280;58429;49.826;10.880;2023-04-24T02:01:21;97571;;;11.78;79.17
4326;BME280;58429;49.826;10.880;2023-04-24T02:02:20;97573;;;11.82;79.24
4326;BME280;58429;49.826;10.880;2023-04-24T02:03:21;97572;;;11.81;79.36
4326;BME280;58429;49.826;10.880;2023-04-24T02:04:20;97571;;;11.79;79.38
4326;BME280;58429;49.826;10.880;2023-04-24T02:05:21;97571;;;11.8;79.42
4326;BME280;58429;49.826;10.880;2023-04-24T02:06:20;97571;;;11.81;79.57
4326;BME280;58429;49.826;10.880;2023-04-24T02:07:20;97571;;;11.79;79.61
4326;BME280;58429;49.826;10.880;2023-04-24T02:08:21;97569;;;11.79;79.58
4326;BME280;58429;49.826;10.880;2023-04-24T02:09:20;97572;;;11.82;79.68
4326;BME280;58429;49.826;10.880;2023-04-24T02:10:21;97567;;;11.82;79.71
4326;BME280;58429;49.826;10.880;2023-04-24T02:11:20;97565;;;11.84;79.69
4326;BME280;58429;49.826;10.880;2023-04-24T02:12:21;97566;;;11.84;79.73
4326;BME280;58429;49.826;10.880;2023-04-24T02:13:21;97561;;;11.81;79.68
4326;BME280;58429;49.826;10.880;2023-04-24T02:14:21;97563;;;11.84;79.71
4326;BME280;58429;49.826;10.880;2023-04-24T02:15:20;97562;;;11.82;79.57
4326;BME280;58429;49.826;10.880;2023-04-24T02:16:20;97565;;;11.81;79.6
4326;BME280;58429;49.826;10.880;2023-04-24T02:17:21;97561;;;11.83;79.67
4326;BME280;58429;49.826;10.880;2023-04-24T02:18:21;97554;;;11.84;79.67
4326;BME280;58429;49.826;10.880;2023-04-24T02:19:21;97555;;;11.85;79.59
4326;BME280;58429;49.826;10.880;2023-04-24T02:20:21;97554;;;11.85;79.56
4326;BME280;58429;49.826;10.880;2023-04-24T02:21:20;97541;;;11.85;79.58
4326;BME280;58429;49.826;10.880;2023-04-24T02:22:21;97543;;;11.85;79.6
4326;BME280;58429;49.826;10.880;2023-04-24T02:23:20;97547;;;11.85;79.6
4326;BME280;58429;49.826;10.880;2023-04-24T02:24:21;97547;;;11.89;79.66
4326;BME280;58429;49.826;10.880;2023-04-24T02:25:21;97544;;;11.87;79.58
4326;BME280;58429;49.826;10.880;2023-04-24T02:26:21;97550;;;11.83;79.71
4326;BME280;58429;49.826;10.880;2023-04-24T02:27:20;97547;;;11.82;79.64
4326;BME280;58429;49.826;10.880;2023-04-24T02:28:21;97545;;;11.83;79.68
4326;BME280;58429;49.826;10.880;2023-04-24T02:29:20;97544;;;11.84;79.73
4326;BME280;58429;49.826;10.880;2023-04-24T02:30:20;97547;;;11.83;79.63
4326;BME280;58429;49.826;10.880;2023-04-24T02:31:20;97544;;;11.83;79.73
4326;BME280;58429;49.826;10.880;2023-04-24T02:32:20;97539;;;11.81;79.75
4326;BME280;58429;49.826;10.880;2023-04-24T02:33:20;97539;;;11.8;79.66
4326;BME280;58429;49.826;10.880;2023-04-24T02:34:20;97536;;;11.78;79.77
4326;BME280;58429;49.826;10.880;2023-04-24T02:35:21;97537;;;11.78;79.61
4326;BME280;58429;49.826;10.880;2023-04-24T02:36:21;97531;;;11.75;79.63
4326;BME280;58429;49.826;10.880;2023-04-24T02:37:21;97534;;;11.73;79.54
4326;BME280;58429;49.826;10.880;2023-04-24T02:38:21;97533;;;11.73;79.47
4326;BME280;58429;49.826;10.880;2023-04-24T02:39:20;97531;;;11.77;79.46
4326;BME280;58429;49.826;10.880;2023-04-24T02:40:20;97530;;;11.75;79.47
4326;BME280;58429;49.826;10.880;2023-04-24T02:41:21;97535;;;11.76;79.36
4326;BME280;58429;49.826;10.880;2023-04-24T02:42:21;97531;;;11.79;79.31
4326;BME280;58429;49.826;10.880;2023-04-24T02:43:21;97535;;;11.73;79.15
4326;BME280;58429;49.826;10.880;2023-04-24T02:44:20;97527;;;11.71;79.1
4326;BME280;58429;49.826;10.880;2023-04-24T02:45:21;97535;;;11.77;78.95
4326;BME280;58429;49.826;10.880;2023-04-24T02:46:20;97531;;;11.71;78.92
4326;BME280;58429;49.826;10.880;2023-04-24T02:47:20;97532;;;11.76;78.97
4326;BME280;58429;49.826;10.880;2023-04-24T02:48:20;97540;;;11.75;78.91
4326;BME280;58429;49.826;10.880;2023-04-24T02:49:21;97530;;;11.75;78.85
4326;BME280;58429;49.826;10.880;2023-04-24T02:50:20;97533;;;11.78;78.77
4326;BME280;58429;49.826;10.880;2023-04-24T02:51:21;97532;;;11.77;78.71
4326;BME280;58429;49.826;10.880;2023-04-24T02:52:21;97533;;;11.79;78.73
4326;BME280;58429;49.826;10.880;2023-04-24T02:53:21;97533;;;11.78;78.78
4326;BME280;58429;49.826;10.880;2023-04-24T02:54:20;97525;;;11.79;78.84
4326;BME280;58429;49.826;10.880;2023-04-24T02:55:21;97521;;;11.8;78.72
4326;BME280;58429;49.826;10.880;2023-04-24T02:56:21;97525;;;11.78;78.7
4326;BME280;58429;49.826;10.880;2023-04-24T02:57:21;97527;;;11.81;78.75
4326;BME280;58429;49.826;10.880;2023-04-24T02:58:20;97531;;;11.83;78.9
4326;BME280;58429;49.826;10.880;2023-04-24T02:59:21;97527;;;11.8;78.79
4326;BME280;58429;49.826;10.880;2023-04-24T03:00:21;97528;;;11.77;78.72
4326;BME280;58429;49.826;10.880;2023-04-24T03:01:21;97529;;;11.75;78.5
4326;BME280;58429;49.826;10.880;2023-04-24T03:02:21;97530;;;11.75;78.42
4326;BME280;58429;49.826;10.880;2023-04-24T03:03:21;97529;;;11.7;78.39
4326;BME280;58429;49.826;10.880;2023-04-24T03:04:21;97520;;;11.71;78.29
4326;BME280;58429;49.826;10.880;2023-04-24T03:05:21;97526;;;11.67;78.19
4326;BME280;58429;49.826;10.880;2023-04-24T03:06:21;97524;;;11.68;78.18
4326;BME280;58429;49.826;10.880;2023-04-24T03:07:21;97522;;;11.68;78.05
4326;BME280;58429;49.826;10.880;2023-04-24T03:08:21;97523;;;11.7;77.96
4326;BME280;58429;49.826;10.880;2023-04-24T03:09:21;97530;;;11.63;77.97
4326;BME280;58429;49.826;10.880;2023-04-24T03:10:21;97530;;;11.66;78.02
4326;BME280;58429;49.826;10.880;2023-04-24T03:11:21;97526;;;11.62;77.87
4326;BME280;58429;49.826;10.880;2023-04-24T03:12:21;97522;;;11.65;77.84
4326;BME280;58429;49.826;10.880;2023-04-24T03:13:21;97523;;;11.62;77.63
4326;BME280;58429;49.826;10.880;2023-04-24T03:14:21;97524;;;11.64;77.65
4326;BME280;58429;49.826;10.880;2023-04-24T03:15:21;97527;;;11.63;77.8
4326;BME280;58429;49.826;10.880;2023-04-24T03:16:21;97526;;;11.63;77.89
4326;BME280;58429;49.826;10.880;2023-04-24T03:17:20;97524;;;11.63;77.8
4326;BME280;58429;49.826;10.880;2023-04-24T03:18:21;97513;;;11.64;77.78
4326;BME280;58429;49.826;10.880;2023-04-24T03:19:21;97512;;;11.63;77.86
4326;BME280;58429;49.826;10.880;2023-04-24T03:20:21;97512;;;11.63;78.03
4326;BME280;58429;49.826;10.880;2023-04-24T03:21:21;97516;;;11.6;77.94
4326;BME280;58429;49.826;10.880;2023-04-24T03:22:21;97511;;;11.58;77.9
4326;BME280;58429;49.826;10.880;2023-04-24T03:23:21;97516;;;11.62;77.93
4326;BME280;58429;49.826;10.880;2023-04-24T03:24:21;97512;;;11.6;77.92
4326;BME280;58429;49.826;10.880;2023-04-24T03:25:21;97517;;;11.58;77.8
4326;BME280;58429;49.826;10.880;2023-04-24T03:26:21;97515;;;11.55;77.82
4326;BME280;58429;49.826;10.880;2023-04-24T03:27:21;97517;;;11.55;77.8
4326;BME280;58429;49.826;10.880;2023-04-24T03:28:21;97511;;;11.57;77.86
4326;BME280;58429;49.826;10.880;2023-04-24T03:29:21;97521;;;11.61;77.83
4326;BME280;58429;49.826;10.880;2023-04-24T03:30:21;97517;;;11.57;77.73
4326;BME280;58429;49.826;10.880;2023-04-24T03:31:21;97526;;;11.57;77.73
4326;BME280;58429;49.826;10.880;2023-04-24T03:32:21;97522;;;11.55;77.69
4326;BME280;58429;49.826;10.880;2023-04-24T03:33:21;97520;;;11.58;77.72
4326;BME280;58429;49.826;10.880;2023-04-24T03:34:21;97527;;;11.6;77.74
4326;BME280;58429;49.826;10.880;2023-04-24T03:35:21;97520;;;11.58;77.71
4326;BME280;58429;49.826;10.880;2023-04-24T03:36:21;97527;;;11.58;77.69
4326;BME280;58429;49.826;10.880;2023-04-24T03:37:21;97526;;;11.58;77.77
4326;BME280;58429;49.826;10.880;2023-04-24T03:38:21;97520;;;11.54;77.71
4326;BME280;58429;49.826;10.880;2023-04-24T03:39:21;97525;;;11.53;77.77
4326;BME280;58429;49.826;10.880;2023-04-24T03:40:21;97525;;;11.52;77.79
4326;BME280;58429;49.826;10.880;2023-04-24T03:41:21;97523;;;11.55;77.83
4326;BME280;58429;49.826;10.880;2023-04-24T03:42:21;97528;;;11.54;77.76
4326;BME280;58429;49.826;10.880;2023-04-24T03:43:21;97526;;;11.58;77.85
4326;BME280;58429;49.826;10.880;2023-04-24T03:44:21;97529;;;11.51;77.76
4326;BME280;58429;49.826;10.880;2023-04-24T03:45:21;97530;;;11.51;77.81
4326;BME280;58429;49.826;10.880;2023-04-24T03:46:21;97529;;;11.51;77.8
4326;BME280;58429;49.826;10.880;2023-04-24T03:47:21;97530;;;11.5;77.75
4326;BME280;58429;49.826;10.880;2023-04-24T03:48:21;97528;;;11.5;77.71
4326;BME280;58429;49.826;10.880;2023-04-24T03:49:21;97528;;;11.53;77.72
4326;BME280;58429;49.826;10.880;2023-04-24T03:50:21;97532;;;11.52;77.72
4326;BME280;58429;49.826;10.880;2023-04-24T03:51:21;97529;;;11.5;77.69
4326;BME280;58429;49.826;10.880;2023-04-24T03:52:21;97532;;;11.54;77.67
4326;BME280;58429;49.826;10.880;2023-04-24T03:53:21;97532;;;11.54;77.65
4326;BME280;58429;49.826;10.880;2023-04-24T03:54:21;97531;;;11.53;77.63
4326;BME280;58429;49.826;10.880;2023-04-24T03:55:21;97530;;;11.5;77.61
4326;BME280;58429;49.826;10.880;2023-04-24T03:56:21;97532;;;11.56;77.57
4326;BME280;58429;49.826;10.880;2023-04-24T03:57:21;97528;;;11.55;77.64
4326;BME280;58429;49.826;10.880;2023-04-24T03:58:21;97530;;;11.52;77.66
4326;BME280;58429;49.826;10.880;2023-04-24T03:59:21;97528;;;11.46;77.61
4326;BME280;58429;49.826;10.880;2023-04-24T04:00:21;97529;;;11.44;77.73
4326;BME280;58429;49.826;10.880;2023-04-24T04:01:21;97532;;;11.42;77.89
4326;BME280;58429;49.826;10.880;2023-04-24T04:02:21;97532;;;11.42;77.82
4326;BME280;58429;49.826;10.880;2023-04-24T04:03:21;97525;;;11.4;77.81
4326;BME280;58429;49.826;10.880;2023-04-24T04:04:21;97528;;;11.4;77.79
4326;BME280;58429;49.826;10.880;2023-04-24T04:05:21;97527;;;11.4;77.81
4326;BME280;58429;49.826;10.880;2023-04-24T04:06:21;97526;;;11.4;77.78
4326;BME280;58429;49.826;10.880;2023-04-24T04:07:21;97526;;;11.41;77.73
4326;BME280;58429;49.826;10.880;2023-04-24T04:08:21;97527;;;11.4;77.65
4326;BME280;58429;49.826;10.880;2023-04-24T04:09:21;97528;;;11.45;77.64
4326;BME280;58429;49.826;10.880;2023-04-24T04:10:21;97530;;;11.4;77.7
4326;BME280;58429;49.826;10.880;2023-04-24T04:11:21;97523;;;11.41;77.73
4326;BME280;58429;49.826;10.880;2023-04-24T04:12:21;97525;;;11.43;77.7
4326;BME280;58429;49.826;10.880;2023-04-24T04:13:21;97529;;;11.43;77.69
4326;BME280;58429;49.826;10.880;2023-04-24T04:14:21;97529;;;11.45;77.67
4326;BME280;58429;49.826;10.880;2023-04-24T04:15:21;97519;;;11.45;77.75
4326;BME280;58429;49.826;10.880;2023-04-24T04:16:21;97530;;;11.42;77.73
4326;BME280;58429;49.826;10.880;2023-04-24T04:17:21;97526;;;11.43;77.79
4326;BME280;58429;49.826;10.880;2023-04-24T04:18:21;97526;;;11.43;77.79
4326;BME280;58429;49.826;10.880;2023-04-24T04:19:21;97521;;;11.43;77.85
4326;BME280;58429;49.826;10.880;2023-04-24T04:20:21;97521;;;11.39;77.95
4326;BME280;58429;49.826;10.880;2023-04-24T04:21:21;97528;;;11.4;78.03
4326;BME280;58429;49.826;10.880;2023-04-24T04:22:21;97533;;;11.38;78.09
4326;BME280;58429;49.826;10.880;2023-04-24T04:23:21;97530;;;11.39;78.19
4326;BME280;58429;49.826;10.880;2023-04-24T04:24:21;97531;;;11.4;78.21
4326;BME280;58429;49.826;10.880;2023-04-24T04:25:21;97534;;;11.39;78.12
4326;BME280;58429;49.826;10.880;2023-04-24T04:26:21;97529;;;11.36;78.16
4326;BME280;58429;49.826;10.880;2023-04-24T04:27:21;97531;;;11.36;78.16
4326;BME280;58429;49.826;10.880;2023-04-24T04:28:21;97525;;;11.36;78.28
4326;BME280;58429;49.826;10.880;2023-04-24T04:29:21;97536;;;11.36;78.12
4326;BME280;58429;49.826;10.880;2023-04-24T04:30:21;97539;;;11.35;77.97
4326;BME280;58429;49.826;10.880;2023-04-24T04:31:21;97536;;;11.35;77.92
4326;BME280;58429;49.826;10.880;2023-04-24T04:32:21;97534;;;11.35;77.94
4326;BME280;58429;49.826;10.880;2023-04-24T04:33:21;97536;;;11.36;78.04
4326;BME280;58429;49.826;10.880;2023-04-24T04:34:21;97538;;;11.36;78.16
4326;BME280;58429;49.826;10.880;2023-04-24T04:35:21;97534;;;11.36;78.18
4326;BME280;58429;49.826;10.880;2023-04-24T04:36:21;97539;;;11.35;78.23
4326;BME280;58429;49.826;10.880;2023-04-24T04:37:21;97536;;;11.37;78.23
4326;BME280;58429;49.826;10.880;2023-04-24T04:38:21;97533;;;11.36;78.29
4326;BME280;58429;49.826;10.880;2023-04-24T04:39:21;97538;;;11.38;78.35
4326;BME280;58429;49.826;10.880;2023-04-24T04:40:21;97531;;;11.36;78.42
4326;BME280;58429;49.826;10.880;2023-04-24T04:41:21;97532;;;11.36;78.59
4326;BME280;58429;49.826;10.880;2023-04-24T04:42:21;97536;;;11.35;78.71
4326;BME280;58429;49.826;10.880;2023-04-24T04:43:21;97535;;;11.36;78.75
4326;BME280;58429;49.826;10.880;2023-04-24T04:44:21;97539;;;11.36;78.76
4326;BME280;58429;49.826;10.880;2023-04-24T04:45:21;97539;;;11.36;78.79
4326;BME280;58429;49.826;10.880;2023-04-24T04:46:21;97536;;;11.36;78.82
4326;BME280;58429;49.826;10.880;2023-04-24T04:47:21;97540;;;11.36;78.82
4326;BME280;58429;49.826;10.880;2023-04-24T04:48:21;97538;;;11.36;78.93
4326;BME280;58429;49.826;10.880;2023-04-24T04:49:21;97539;;;11.36;79
4326;BME280;58429;49.826;10.880;2023-04-24T04:50:21;97536;;;11.36;78.99
4326;BME280;58429;49.826;10.880;2023-04-24T04:51:21;97539;;;11.35;78.94
4326;BME280;58429;49.826;10.880;2023-04-24T04:52:21;97536;;;11.39;78.9
4326;BME280;58429;49.826;10.880;2023-04-24T04:53:21;97530;;;11.36;78.85
4326;BME280;58429;49.826;10.880;2023-04-24T04:54:21;97537;;;11.36;78.78
4326;BME280;58429;49.826;10.880;2023-04-24T04:55:21;97540;;;11.37;78.73
4326;BME280;58429;49.826;10.880;2023-04-24T04:56:21;97536;;;11.36;78.73
4326;BME280;58429;49.826;10.880;2023-04-24T04:57:21;97541;;;11.35;78.73
4326;BME280;58429;49.826;10.880;2023-04-24T04:58:21;97540;;;11.4;78.74
4326;BME280;58429;49.826;10.880;2023-04-24T04:59:21;97547;;;11.38;78.81
4326;BME280;58429;49.826;10.880;2023-04-24T05:00:21;97544;;;11.44;78.77
4326;BME280;58429;49.826;10.880;2023-04-24T05:01:21;97539;;;11.4;78.78
4326;BME280;58429;49.826;10.880;2023-04-24T05:02:21;97542;;;11.42;78.8
4326;BME280;58429;49.826;10.880;2023-04-24T05:03:21;97544;;;11.4;78.71
4326;BME280;58429;49.826;10.880;2023-04-24T05:04:21;97548;;;11.39;78.72
4326;BME280;58429;49.826;10.880;2023-04-24T05:05:21;97549;;;11.44;78.75
4326;BME280;58429;49.826;10.880;2023-04-24T05:06:21;97547;;;11.44;78.76
4326;BME280;58429;49.826;10.880;2023-04-24T05:07:21;97547;;;11.42;78.81
4326;BME280;58429;49.826;10.880;2023-04-24T05:08:21;97550;;;11.42;78.8
4326;BME280;58429;49.826;10.880;2023-04-24T05:09:21;97547;;;11.46;78.8
4326;BME280;58429;49.826;10.880;2023-04-24T05:10:21;97547;;;11.43;78.78
4326;BME280;58429;49.826;10.880;2023-04-24T05:11:21;97550;;;11.48;78.83
4326;BME280;58429;49.826;10.880;2023-04-24T05:12:21;97553;;;11.47;78.74
4326;BME280;58429;49.826;10.880;2023-04-24T05:13:21;97552;;;11.43;78.74
4326;BME280;58429;49.826;10.880;2023-04-24T05:14:21;97557;;;11.46;78.73
4326;BME280;58429;49.826;10.880;2023-04-24T05:15:21;97556;;;11.48;78.69
4326;BME280;58429;49.826;10.880;2023-04-24T05:16:21;97560;;;11.47;78.6
4326;BME280;58429;49.826;10.880;2023-04-24T05:17:21;97555;;;11.46;78.64
4326;BME280;58429;49.826;10.880;2023-04-24T05:18:21;97557;;;11.47;78.66
4326;BME280;58429;49.826;10.880;2023-04-24T05:19:21;97551;;;11.51;78.7
4326;BME280;58429;49.826;10.880;2023-04-24T05:20:21;97558;;;11.46;78.69
4326;BME280;58429;49.826;10.880;2023-04-24T05:21:21;97553;;;11.49;78.68
4326;BME280;58429;49.826;10.880;2023-04-24T05:22:21;97558;;;11.5;78.65
4326;BME280;58429;49.826;10.880;2023-04-24T05:23:21;97558;;;11.52;78.67
4326;BME280;58429;49.826;10.880;2023-04-24T05:24:21;97554;;;11.47;78.73
4326;BME280;58429;49.826;10.880;2023-04-24T05:25:21;97563;;;11.51;78.7
4326;BME280;58429;49.826;10.880;2023-04-24T05:26:21;97559;;;11.51;78.67
4326;BME280;58429;49.826;10.880;2023-04-24T05:27:21;97564;;;11.55;78.6
4326;BME280;58429;49.826;10.880;2023-04-24T05:28:21;97560;;;11.54;78.62
4326;BME280;58429;49.826;10.880;2023-04-24T05:29:21;97563;;;11.52;78.55
4326;BME280;58429;49.826;10.880;2023-04-24T05:30:21;97566;;;11.52;78.61
4326;BME280;58429;49.826;10.880;2023-04-24T05:31:21;97570;;;11.55;78.72